sensor_id;sensor_type;location;lat;lon;timestamp;temperature;humidity
11656;DHT22;5884;43.618;1.438;2024-01-07T05:45:56;5.10;99.90
11656;DHT22;5884;43.618;1.438;2024-01-07T05:48:23;5.10;99.90
11656;DHT22;5884;43.618;1.438;2024-01-07T05:50:50;5.10;99.90
11656;DHT22;5884;43.618;1.438;2024-01-07T05:53:18;5.10;99.90
11656;DHT22;5884;43.618;1.438;2024-01-07T05:55:45;5.00;99.90
11656;DHT22;5884;43.618;1.438;2024-01-07T05:58:12;5.00;99.90
11656;DHT22;5884;43.618;1.438;2024-01-07T06:00:39;5.00;99.90
11656;DHT22;5884;43.618;1.438;2024-01-07T06:03:10;5.00;99.90
11656;DHT22;5884;43.618;1.438;2024-01-07T06:05:38;5.00;99.90
11656;DHT22;5884;43.618;1.438;2024-01-07T06:08:06;5.00;99.90
11656;DHT22;5884;43.618;1.438;2024-01-07T06:10:34;5.00;99.90
11656;DHT22;5884;43.618;1.438;2024-01-07T06:13:01;5.00;99.90
11656;DHT22;5884;43.618;1.438;2024-01-07T06:15:29;5.00;99.90
11656;DHT22;5884;43.618;1.438;2024-01-07T06:17:56;5.00;99.90
11656;DHT22;5884;43.618;1.438;2024-01-07T06:20:25;5.00;99.90
11656;DHT22;5884;43.618;1.438;2024-01-07T06:22:52;4.90;99.90
11656;DHT22;5884;43.618;1.438;2024-01-07T06:25:19;5.00;99.90
11656;DHT22;5884;43.618;1.438;2024-01-07T06:27:46;5.00;99.90
11656;DHT22;5884;43.618;1.438;2024-01-07T06:30:14;5.00;99.90
11656;DHT22;5884;43.618;1.438;2024-01-07T06:32:43;5.00;99.90
11656;DHT22;5884;43.618;1.438;2024-01-07T06:35:11;5.00;99.90
11656;DHT22;5884;43.618;1.438;2024-01-07T06:37:39;5.00;99.90
11656;DHT22;5884;43.618;1.438;2024-01-07T06:40:07;5.00;99.90
11656;DHT22;5884;43.618;1.438;2024-01-07T06:42:37;5.00;99.90
11656;DHT22;5884;43.618;1.438;2024-01-07T06:45:05;5.00;99.90
11656;DHT22;5884;43.618;1.438;2024-01-07T06:47:32;4.90;99.90
11656;DHT22;5884;43.618;1.438;2024-01-07T06:50:00;4.90;99.90
11656;DHT22;5884;43.618;1.438;2024-01-07T06:52:27;5.00;99.90
11656;DHT22;5884;43.618;1.438;2024-01-07T06:54:55;4.90;99.90
11656;DHT22;5884;43.618;1.438;2024-01-07T06:57:23;5.00;99.90
11656;DHT22;5884;43.618;1.438;2024-01-07T06:59:50;5.00;99.90
11656;DHT22;5884;43.618;1.438;2024-01-07T07:02:17;4.90;99.90
11656;DHT22;5884;43.618;1.438;2024-01-07T07:04:44;4.90;99.90
11656;DHT22;5884;43.618;1.438;2024-01-07T07:07:11;4.90;99.90
11656;DHT22;5884;43.618;1.438;2024-01-07T07:09:39;4.90;99.90
11656;DHT22;5884;43.618;1.438;2024-01-07T07:12:07;4.90;99.90
11656;DHT22;5884;43.618;1.438;2024-01-07T07:14:35;4.90;99.90
11656;DHT22;5884;43.618;1.438;2024-01-07T07:17:02;4.90;99.90
11656;DHT22;5884;43.618;1.438;2024-01-07T07:19:29;4.90;99.90
11656;DHT22;5884;43.618;1.438;2024-01-07T07:21:56;4.90;99.90
11656;DHT22;5884;43.618;1.438;2024-01-07T07:24:24;4.90;99.90
11656;DHT22;5884;43.618;1.438;2024-01-07T07:26:51;4.90;99.90
11656;DHT22;5884;43.618;1.438;2024-01-07T07:29:19;4.90;99.90
11656;DHT22;5884;43.618;1.438;2024-01-07T07:31:46;4.90;99.90
11656;DHT22;5884;43.618;1.438;2024-01-07T07:34:14;4.90;99.90
11656;DHT22;5884;43.618;1.438;2024-01-07T07:36:41;4.90;99.90
11656;DHT22;5884;43.618;1.438;2024-01-07T07:39:10;4.80;99.90
11656;DHT22;5884;43.618;1.438;2024-01-07T07:41:39;4.80;99.90
11656;DHT22;5884;43.618;1.438;2024-01-07T07:44:06;4.80;99.90
11656;DHT22;5884;43.618;1.438;2024-01-07T07:46:35;4.80;99.90
11656;DHT22;5884;43.618;1.438;2024-01-07T07:49:02;4.80;99.90
11656;DHT22;5884;43.618;1.438;2024-01-07T07:51:29;4.90;99.90
11656;DHT22;5884;43.618;1.438;2024-01-07T07:53:56;4.90;99.90
11656;DHT22;5884;43.618;1.438;2024-01-07T07:56:24;4.90;99.90
11656;DHT22;5884;43.618;1.438;2024-01-07T07:58:51;4.80;99.90
11656;DHT22;5884;43.618;1.438;2024-01-07T08:01:18;4.90;99.90
11656;DHT22;5884;43.618;1.438;2024-01-07T08:03:46;4.80;99.90
11656;DHT22;5884;43.618;1.438;2024-01-07T08:06:14;4.90;99.90
11656;DHT22;5884;43.618;1.438;2024-01-07T08:08:41;4.90;99.90
11656;DHT22;5884;43.618;1.438;2024-01-07T08:11:08;4.90;99.90
11656;DHT22;5884;43.618;1.438;2024-01-07T08:13:36;4.80;99.90
11656;DHT22;5884;43.618;1.438;2024-01-07T08:16:04;4.80;99.90
11656;DHT22;5884;43.618;1.438;2024-01-07T08:18:32;4.80;99.90
11656;DHT22;5884;43.618;1.438;2024-01-07T08:21:01;4.90;99.90
11656;DHT22;5884;43.618;1.438;2024-01-07T08:23:28;4.90;99.90
11656;DHT22;5884;43.618;1.438;2024-01-07T08:25:56;4.90;99.90
11656;DHT22;5884;43.618;1.438;2024-01-07T08:28:23;4.90;99.90
11656;DHT22;5884;43.618;1.438;2024-01-07T08:30:50;5.00;99.90
11656;DHT22;5884;43.618;1.438;2024-01-07T08:33:19;5.00;99.90
11656;DHT22;5884;43.618;1.438;2024-01-07T08:35:46;5.00;99.90
11656;DHT22;5884;43.618;1.438;2024-01-07T08:38:15;5.00;99.90
11656;DHT22;5884;43.618;1.438;2024-01-07T08:40:42;5.00;99.90
11656;DHT22;5884;43.618;1.438;2024-01-07T08:43:09;5.00;99.90
11656;DHT22;5884;43.618;1.438;2024-01-07T08:45:36;4.90;99.90
11656;DHT22;5884;43.618;1.438;2024-01-07T08:48:04;4.90;99.90
11656;DHT22;5884;43.618;1.438;2024-01-07T08:50:32;4.80;99.90
11656;DHT22;5884;43.618;1.438;2024-01-07T08:52:59;4.80;99.90
11656;DHT22;5884;43.618;1.438;2024-01-07T08:55:27;4.70;99.90
11656;DHT22;5884;43.618;1.438;2024-01-07T08:57:54;4.70;99.90
11656;DHT22;5884;43.618;1.438;2024-01-07T09:00:22;4.60;99.90
11656;DHT22;5884;43.618;1.438;2024-01-07T09:02:52;4.60;99.90
11656;DHT22;5884;43.618;1.438;2024-01-07T09:05:19;4.60;99.90
11656;DHT22;5884;43.618;1.438;2024-01-07T09:07:46;4.70;99.90
11656;DHT22;5884;43.618;1.438;2024-01-07T09:10:14;4.80;99.90
11656;DHT22;5884;43.618;1.438;2024-01-07T09:12:42;5.00;99.90
11656;DHT22;5884;43.618;1.438;2024-01-07T09:15:09;5.00;99.90
11656;DHT22;5884;43.618;1.438;2024-01-07T09:17:37;5.00;99.90
11656;DHT22;5884;43.618;1.438;2024-01-07T09:20:06;5.00;99.90
11656;DHT22;5884;43.618;1.438;2024-01-07T09:22:34;5.00;99.90
11656;DHT22;5884;43.618;1.438;2024-01-07T09:25:02;5.00;99.90
11656;DHT22;5884;43.618;1.438;2024-01-07T09:27:30;5.00;99.90
11656;DHT22;5884;43.618;1.438;2024-01-07T09:29:58;4.80;99.90
11656;DHT22;5884;43.618;1.438;2024-01-07T09:32:26;4.80;99.90
11656;DHT22;5884;43.618;1.438;2024-01-07T09:34:53;5.00;99.90
11656;DHT22;5884;43.618;1.438;2024-01-07T09:37:21;5.00;99.90
11656;DHT22;5884;43.618;1.438;2024-01-07T09:39:48;5.00;99.90
11656;DHT22;5884;43.618;1.438;2024-01-07T09:42:16;4.90;99.90
11656;DHT22;5884;43.618;1.438;2024-01-07T09:44:44;4.90;99.90
11656;DHT22;5884;43.618;1.438;2024-01-07T09:47:14;4.90;99.90
11656;DHT22;5884;43.618;1.438;2024-01-07T09:49:42;5.00;99.90
11656;DHT22;5884;43.618;1.438;2024-01-07T09:52:11;5.00;99.90
11656;DHT22;5884;43.618;1.438;2024-01-07T09:54:39;5.10;99.90
11656;DHT22;5884;43.618;1.438;2024-01-07T09:57:08;5.20;99.90
11656;DHT22;5884;43.618;1.438;2024-01-07T09:59:36;5.20;99.90
11656;DHT22;5884;43.618;1.438;2024-01-07T10:02:04;5.30;99.90
11656;DHT22;5884;43.618;1.438;2024-01-07T10:04:33;5.30;99.90
11656;DHT22;5884;43.618;1.438;2024-01-07T10:07:00;5.30;99.90
11656;DHT22;5884;43.618;1.438;2024-01-07T10:09:29;5.40;99.90
11656;DHT22;5884;43.618;1.438;2024-01-07T10:11:57;5.50;99.90
11656;DHT22;5884;43.618;1.438;2024-01-07T10:14:24;5.50;99.90
11656;DHT22;5884;43.618;1.438;2024-01-07T10:16:51;5.50;99.90
11656;DHT22;5884;43.618;1.438;2024-01-07T10:19:23;5.50;99.90
11656;DHT22;5884;43.618;1.438;2024-01-07T10:22:02;5.40;99.90
11656;DHT22;5884;43.618;1.438;2024-01-07T10:24:36;5.60;99.90
11656;DHT22;5884;43.618;1.438;2024-01-07T10:27:05;5.60;99.90
11656;DHT22;5884;43.618;1.438;2024-01-07T10:29:33;5.70;99.90
11656;DHT22;5884;43.618;1.438;2024-01-07T10:32:01;5.70;99.90
11656;DHT22;5884;43.618;1.438;2024-01-07T10:34:31;5.80;99.90
11656;DHT22;5884;43.618;1.438;2024-01-07T10:37:01;5.80;99.90
11656;DHT22;5884;43.618;1.438;2024-01-07T10:39:29;5.90;99.90
11656;DHT22;5884;43.618;1.438;2024-01-07T10:41:57;5.80;99.90
11656;DHT22;5884;43.618;1.438;2024-01-07T10:44:26;5.80;99.90
11656;DHT22;5884;43.618;1.438;2024-01-07T10:46:54;5.80;99.90
11656;DHT22;5884;43.618;1.438;2024-01-07T10:49:23;5.60;99.90
11656;DHT22;5884;43.618;1.438;2024-01-07T10:52:02;5.60;99.90
11656;DHT22;5884;43.618;1.438;2024-01-07T10:54:31;5.50;99.90
11656;DHT22;5884;43.618;1.438;2024-01-07T10:57:04;5.40;99.90
11656;DHT22;5884;43.618;1.438;2024-01-07T10:59:35;5.40;99.90
11656;DHT22;5884;43.618;1.438;2024-01-07T11:02:03;5.40;99.90
11656;DHT22;5884;43.618;1.438;2024-01-07T11:04:38;5.40;99.90
11656;DHT22;5884;43.618;1.438;2024-01-07T11:07:19;5.50;99.90
11656;DHT22;5884;43.618;1.438;2024-01-07T11:09:56;5.50;99.90
11656;DHT22;5884;43.618;1.438;2024-01-07T11:12:30;5.40;99.90
11656;DHT22;5884;43.618;1.438;2024-01-07T11:14:57;5.40;99.90
11656;DHT22;5884;43.618;1.438;2024-01-07T11:17:41;5.30;99.90
11656;DHT22;5884;43.618;1.438;2024-01-07T11:20:20;5.30;99.90
11656;DHT22;5884;43.618;1.438;2024-01-07T11:22:49;5.40;99.90
11656;DHT22;5884;43.618;1.438;2024-01-07T11:25:30;5.40;99.90
11656;DHT22;5884;43.618;1.438;2024-01-07T11:27:58;5.40;99.90
11656;DHT22;5884;43.618;1.438;2024-01-07T11:30:28;5.40;99.90
11656;DHT22;5884;43.618;1.438;2024-01-07T11:32:59;5.30;99.90
11656;DHT22;5884;43.618;1.438;2024-01-07T11:35:53;5.40;99.90
11656;DHT22;5884;43.618;1.438;2024-01-07T11:38:23;5.40;99.90
11656;DHT22;5884;43.618;1.438;2024-01-07T11:40:50;5.40;99.90
11656;DHT22;5884;43.618;1.438;2024-01-07T11:43:18;5.50;99.90
11656;DHT22;5884;43.618;1.438;2024-01-07T11:45:45;5.40;99.90
11656;DHT22;5884;43.618;1.438;2024-01-07T11:48:13;5.50;99.90
11656;DHT22;5884;43.618;1.438;2024-01-07T11:50:41;5.60;99.90
11656;DHT22;5884;43.618;1.438;2024-01-07T11:53:08;5.60;99.90
11656;DHT22;5884;43.618;1.438;2024-01-07T11:55:37;5.70;99.90
11656;DHT22;5884;43.618;1.438;2024-01-07T11:58:04;5.60;99.90
11656;DHT22;5884;43.618;1.438;2024-01-07T12:00:32;5.70;99.90
11656;DHT22;5884;43.618;1.438;2024-01-07T12:02:59;5.70;99.90
11656;DHT22;5884;43.618;1.438;2024-01-07T12:05:27;5.80;99.90
11656;DHT22;5884;43.618;1.438;2024-01-07T12:07:54;5.80;99.90
11656;DHT22;5884;43.618;1.438;2024-01-07T12:10:23;5.70;99.90
11656;DHT22;5884;43.618;1.438;2024-01-07T12:12:52;5.70;99.90
11656;DHT22;5884;43.618;1.438;2024-01-07T12:15:20;5.70;99.90
11656;DHT22;5884;43.618;1.438;2024-01-07T12:17:57;5.80;99.90
11656;DHT22;5884;43.618;1.438;2024-01-07T12:20:27;5.70;99.90
11656;DHT22;5884;43.618;1.438;2024-01-07T12:22:57;5.70;99.90
11656;DHT22;5884;43.618;1.438;2024-01-07T12:25:24;5.60;99.90
11656;DHT22;5884;43.618;1.438;2024-01-07T12:27:53;5.60;99.90
11656;DHT22;5884;43.618;1.438;2024-01-07T12:30:20;5.60;99.90
11656;DHT22;5884;43.618;1.438;2024-01-07T12:32:51;5.60;99.90
11656;DHT22;5884;43.618;1.438;2024-01-07T12:35:18;5.60;99.90
11656;DHT22;5884;43.618;1.438;2024-01-07T12:37:45;5.60;99.90
11656;DHT22;5884;43.618;1.438;2024-01-07T12:40:12;5.60;99.90
11656;DHT22;5884;43.618;1.438;2024-01-07T12:42:40;5.70;99.90
11656;DHT22;5884;43.618;1.438;2024-01-07T12:45:12;5.60;99.90
11656;DHT22;5884;43.618;1.438;2024-01-07T12:47:42;5.60;99.90
11656;DHT22;5884;43.618;1.438;2024-01-07T12:50:09;5.60;99.90
11656;DHT22;5884;43.618;1.438;2024-01-07T12:52:37;5.50;99.90
11656;DHT22;5884;43.618;1.438;2024-01-07T12:55:05;5.50;99.90
11656;DHT22;5884;43.618;1.438;2024-01-07T12:57:32;5.60;99.90
11656;DHT22;5884;43.618;1.438;2024-01-07T13:00:00;5.60;99.90
11656;DHT22;5884;43.618;1.438;2024-01-07T13:02:28;5.60;99.90
11656;DHT22;5884;43.618;1.438;2024-01-07T13:04:55;5.60;99.90
11656;DHT22;5884;43.618;1.438;2024-01-07T13:07:22;5.70;99.90
11656;DHT22;5884;43.618;1.438;2024-01-07T13:09:51;5.70;99.90
11656;DHT22;5884;43.618;1.438;2024-01-07T13:12:18;5.80;99.90
11656;DHT22;5884;43.618;1.438;2024-01-07T13:14:45;5.70;99.90
11656;DHT22;5884;43.618;1.438;2024-01-07T13:17:13;5.70;99.90
11656;DHT22;5884;43.618;1.438;2024-01-07T13:19:42;5.70;99.90
11656;DHT22;5884;43.618;1.438;2024-01-07T13:22:10;5.70;99.90
11656;DHT22;5884;43.618;1.438;2024-01-07T13:24:37;5.70;99.90
11656;DHT22;5884;43.618;1.438;2024-01-07T13:27:04;5.70;99.90
11656;DHT22;5884;43.618;1.438;2024-01-07T13:29:32;5.60;99.90
11656;DHT22;5884;43.618;1.438;2024-01-07T13:31:59;5.60;99.90
11656;DHT22;5884;43.618;1.438;2024-01-07T13:34:27;5.50;99.90
11656;DHT22;5884;43.618;1.438;2024-01-07T13:36:55;5.60;99.90
11656;DHT22;5884;43.618;1.438;2024-01-07T13:39:23;5.60;99.90
11656;DHT22;5884;43.618;1.438;2024-01-07T13:41:50;5.60;99.90
11656;DHT22;5884;43.618;1.438;2024-01-07T13:44:19;5.60;99.90
11656;DHT22;5884;43.618;1.438;2024-01-07T13:46:47;5.50;99.90
11656;DHT22;5884;43.618;1.438;2024-01-07T13:49:14;5.50;99.90
11656;DHT22;5884;43.618;1.438;2024-01-07T13:51:41;5.50;99.90
11656;DHT22;5884;43.618;1.438;2024-01-07T13:54:10;5.40;99.90
11656;DHT22;5884;43.618;1.438;2024-01-07T13:56:40;5.30;99.90
11656;DHT22;5884;43.618;1.438;2024-01-07T13:59:08;5.40;99.90
11656;DHT22;5884;43.618;1.438;2024-01-07T14:01:35;5.40;99.90
11656;DHT22;5884;43.618;1.438;2024-01-07T14:04:03;5.40;99.90
11656;DHT22;5884;43.618;1.438;2024-01-07T14:06:30;5.40;99.90
11656;DHT22;5884;43.618;1.438;2024-01-07T14:08:57;5.40;99.90
11656;DHT22;5884;43.618;1.438;2024-01-07T14:11:26;5.30;99.90
11656;DHT22;5884;43.618;1.438;2024-01-07T14:13:53;5.40;99.90
11656;DHT22;5884;43.618;1.438;2024-01-07T14:16:21;5.40;99.90
11656;DHT22;5884;43.618;1.438;2024-01-07T14:18:49;5.40;99.90
11656;DHT22;5884;43.618;1.438;2024-01-07T14:21:16;5.50;99.90
11656;DHT22;5884;43.618;1.438;2024-01-07T14:23:43;5.50;99.90
11656;DHT22;5884;43.618;1.438;2024-01-07T14:26:11;5.40;99.90
11656;DHT22;5884;43.618;1.438;2024-01-07T14:28:39;5.50;99.90
11656;DHT22;5884;43.618;1.438;2024-01-07T14:31:05;5.40;99.90
11656;DHT22;5884;43.618;1.438;2024-01-07T14:33:32;5.40;99.90
11656;DHT22;5884;43.618;1.438;2024-01-07T14:36:02;5.40;99.90
11656;DHT22;5884;43.618;1.438;2024-01-07T14:38:30;5.50;99.90
11656;DHT22;5884;43.618;1.438;2024-01-07T14:40:57;5.60;99.90
11656;DHT22;5884;43.618;1.438;2024-01-07T14:43:25;5.50;99.90
11656;DHT22;5884;43.618;1.438;2024-01-07T14:45:54;5.50;99.90
11656;DHT22;5884;43.618;1.438;2024-01-07T14:48:21;5.50;99.90
11656;DHT22;5884;43.618;1.438;2024-01-07T14:50:48;5.50;99.90
11656;DHT22;5884;43.618;1.438;2024-01-07T14:53:17;5.40;99.90
11656;DHT22;5884;43.618;1.438;2024-01-07T14:55:44;5.40;99.90
11656;DHT22;5884;43.618;1.438;2024-01-07T14:58:11;5.40;99.90
11656;DHT22;5884;43.618;1.438;2024-01-07T15:00:38;5.40;99.90
11656;DHT22;5884;43.618;1.438;2024-01-07T15:03:07;5.40;99.90
11656;DHT22;5884;43.618;1.438;2024-01-07T15:05:34;5.40;99.90
11656;DHT22;5884;43.618;1.438;2024-01-07T15:08:02;5.40;99.90
11656;DHT22;5884;43.618;1.438;2024-01-07T15:10:29;5.40;99.90
11656;DHT22;5884;43.618;1.438;2024-01-07T15:12:56;5.40;99.90
11656;DHT22;5884;43.618;1.438;2024-01-07T15:15:24;5.40;99.90
11656;DHT22;5884;43.618;1.438;2024-01-07T15:17:55;5.40;99.90
11656;DHT22;5884;43.618;1.438;2024-01-07T15:20:24;5.30;99.90
11656;DHT22;5884;43.618;1.438;2024-01-07T15:22:51;5.40;99.90
11656;DHT22;5884;43.618;1.438;2024-01-07T15:25:19;5.30;99.90
11656;DHT22;5884;43.618;1.438;2024-01-07T15:27:46;5.40;99.90
11656;DHT22;5884;43.618;1.438;2024-01-07T15:30:13;5.30;99.90
11656;DHT22;5884;43.618;1.438;2024-01-07T15:32:41;5.40;99.90
11656;DHT22;5884;43.618;1.438;2024-01-07T15:35:08;5.40;99.90
11656;DHT22;5884;43.618;1.438;2024-01-07T15:37:36;5.40;99.90
11656;DHT22;5884;43.618;1.438;2024-01-07T15:40:04;5.30;99.90
11656;DHT22;5884;43.618;1.438;2024-01-07T15:42:32;5.30;99.90
11656;DHT22;5884;43.618;1.438;2024-01-07T15:45:00;5.40;99.90
11656;DHT22;5884;43.618;1.438;2024-01-07T15:47:27;5.30;99.90
11656;DHT22;5884;43.618;1.438;2024-01-07T15:49:54;5.30;99.90
11656;DHT22;5884;43.618;1.438;2024-01-07T15:52:21;5.30;99.90
11656;DHT22;5884;43.618;1.438;2024-01-07T15:54:50;5.20;99.90
11656;DHT22;5884;43.618;1.438;2024-01-07T15:57:17;5.00;99.90
11656;DHT22;5884;43.618;1.438;2024-01-07T15:59:44;4.90;99.90
11656;DHT22;5884;43.618;1.438;2024-01-07T16:02:11;4.80;99.90
11656;DHT22;5884;43.618;1.438;2024-01-07T16:04:38;4.80;99.90
11656;DHT22;5884;43.618;1.438;2024-01-07T16:07:05;4.80;99.90
11656;DHT22;5884;43.618;1.438;2024-01-07T16:09:32;4.90;99.90
11656;DHT22;5884;43.618;1.438;2024-01-07T16:12:03;4.80;99.90
11656;DHT22;5884;43.618;1.438;2024-01-07T16:14:31;4.80;99.90
11656;DHT22;5884;43.618;1.438;2024-01-07T16:16:59;4.80;99.90
11656;DHT22;5884;43.618;1.438;2024-01-07T16:19:27;4.90;99.90
11656;DHT22;5884;43.618;1.438;2024-01-07T16:21:55;4.90;99.90
11656;DHT22;5884;43.618;1.438;2024-01-07T16:24:24;5.00;99.90
11656;DHT22;5884;43.618;1.438;2024-01-07T16:26:52;5.00;99.90
11656;DHT22;5884;43.618;1.438;2024-01-07T16:29:21;5.00;99.90
11656;DHT22;5884;43.618;1.438;2024-01-07T16:31:48;5.00;99.90
11656;DHT22;5884;43.618;1.438;2024-01-07T16:34:15;5.10;99.90
11656;DHT22;5884;43.618;1.438;2024-01-07T16:36:42;5.10;99.90
11656;DHT22;5884;43.618;1.438;2024-01-07T16:39:09;5.10;99.90
11656;DHT22;5884;43.618;1.438;2024-01-07T16:41:37;5.10;99.90
11656;DHT22;5884;43.618;1.438;2024-01-07T16:44:04;5.10;99.90
11656;DHT22;5884;43.618;1.438;2024-01-07T16:46:35;5.10;99.90
11656;DHT22;5884;43.618;1.438;2024-01-07T16:49:03;5.10;99.90
11656;DHT22;5884;43.618;1.438;2024-01-07T16:51:30;5.00;99.90
11656;DHT22;5884;43.618;1.438;2024-01-07T16:53:57;5.00;99.90
11656;DHT22;5884;43.618;1.438;2024-01-07T16:56:24;5.00;99.90
11656;DHT22;5884;43.618;1.438;2024-01-07T16:58:52;5.00;99.90
11656;DHT22;5884;43.618;1.438;2024-01-07T17:01:19;5.00;99.90
11656;DHT22;5884;43.618;1.438;2024-01-07T17:03:47;5.00;99.90
11656;DHT22;5884;43.618;1.438;2024-01-07T17:06:14;5.00;99.90
11656;DHT22;5884;43.618;1.438;2024-01-07T17:08:41;5.00;99.90
11656;DHT22;5884;43.618;1.438;2024-01-07T17:11:08;5.00;99.90
11656;DHT22;5884;43.618;1.438;2024-01-07T17:13:35;5.00;99.90
11656;DHT22;5884;43.618;1.438;2024-01-07T17:16:04;5.00;99.90
11656;DHT22;5884;43.618;1.438;2024-01-07T17:18:32;5.00;99.90
11656;DHT22;5884;43.618;1.438;2024-01-07T17:21:00;5.00;99.90
11656;DHT22;5884;43.618;1.438;2024-01-07T17:23:27;5.00;99.90
11656;DHT22;5884;43.618;1.438;2024-01-07T17:25:54;5.00;99.90
11656;DHT22;5884;43.618;1.438;2024-01-07T17:28:22;5.00;99.90
11656;DHT22;5884;43.618;1.438;2024-01-07T17:30:50;5.00;99.90
11656;DHT22;5884;43.618;1.438;2024-01-07T17:33:17;5.00;99.90
11656;DHT22;5884;43.618;1.438;2024-01-07T17:35:45;5.00;99.90
11656;DHT22;5884;43.618;1.438;2024-01-07T17:38:13;5.00;99.90
11656;DHT22;5884;43.618;1.438;2024-01-07T17:40:44;5.00;99.90
11656;DHT22;5884;43.618;1.438;2024-01-07T17:43:11;5.00;99.90
11656;DHT22;5884;43.618;1.438;2024-01-07T17:45:38;4.90;99.90
11656;DHT22;5884;43.618;1.438;2024-01-07T17:48:07;4.90;99.90
11656;DHT22;5884;43.618;1.438;2024-01-07T17:50:34;4.90;99.90
11656;DHT22;5884;43.618;1.438;2024-01-07T17:53:03;4.90;99.90
11656;DHT22;5884;43.618;1.438;2024-01-07T17:55:36;4.90;99.90
11656;DHT22;5884;43.618;1.438;2024-01-07T17:58:03;4.90;99.90
11656;DHT22;5884;43.618;1.438;2024-01-07T18:00:30;4.90;99.90
11656;DHT22;5884;43.618;1.438;2024-01-07T18:02:58;4.90;99.90
11656;DHT22;5884;43.618;1.438;2024-01-07T18:05:31;5.00;99.90
11656;DHT22;5884;43.618;1.438;2024-01-07T18:08:00;5.00;99.90
11656;DHT22;5884;43.618;1.438;2024-01-07T18:10:27;4.90;99.90
11656;DHT22;5884;43.618;1.438;2024-01-07T18:12:56;4.90;99.90
11656;DHT22;5884;43.618;1.438;2024-01-07T18:15:23;4.90;99.90
11656;DHT22;5884;43.618;1.438;2024-01-07T18:17:51;5.00;99.90
11656;DHT22;5884;43.618;1.438;2024-01-07T18:20:18;5.00;99.90
11656;DHT22;5884;43.618;1.438;2024-01-07T18:22:46;4.90;99.90
11656;DHT22;5884;43.618;1.438;2024-01-07T18:25:14;5.00;99.90
11656;DHT22;5884;43.618;1.438;2024-01-07T18:27:42;5.00;99.90
11656;DHT22;5884;43.618;1.438;2024-01-07T18:30:12;4.90;99.90
11656;DHT22;5884;43.618;1.438;2024-01-07T18:32:39;4.90;99.90
11656;DHT22;5884;43.618;1.438;2024-01-07T18:35:08;5.00;99.90
11656;DHT22;5884;43.618;1.438;2024-01-07T18:37:36;4.90;99.90
11656;DHT22;5884;43.618;1.438;2024-01-07T18:40:05;4.90;99.90
11656;DHT22;5884;43.618;1.438;2024-01-07T18:42:35;4.90;99.90
11656;DHT22;5884;43.618;1.438;2024-01-07T18:45:02;4.90;99.90
11656;DHT22;5884;43.618;1.438;2024-01-07T18:47:31;4.90;99.90
11656;DHT22;5884;43.618;1.438;2024-01-07T18:49:58;4.90;99.90
11656;DHT22;5884;43.618;1.438;2024-01-07T18:52:25;4.90;99.90
11656;DHT22;5884;43.618;1.438;2024-01-07T18:54:52;4.90;99.90
11656;DHT22;5884;43.618;1.438;2024-01-07T18:57:19;4.90;99.90
11656;DHT22;5884;43.618;1.438;2024-01-07T18:59:46;4.90;99.90
11656;DHT22;5884;43.618;1.438;2024-01-07T19:02:14;4.90;99.90
11656;DHT22;5884;43.618;1.438;2024-01-07T19:04:42;4.90;99.90
11656;DHT22;5884;43.618;1.438;2024-01-07T19:07:09;4.90;99.90
11656;DHT22;5884;43.618;1.438;2024-01-07T19:09:37;4.90;99.90
11656;DHT22;5884;43.618;1.438;2024-01-07T19:12:05;4.90;99.90
11656;DHT22;5884;43.618;1.438;2024-01-07T19:14:33;4.90;99.90
11656;DHT22;5884;43.618;1.438;2024-01-07T19:17:00;4.90;99.90
11656;DHT22;5884;43.618;1.438;2024-01-07T19:19:27;4.90;99.90
11656;DHT22;5884;43.618;1.438;2024-01-07T19:21:56;4.90;99.90
11656;DHT22;5884;43.618;1.438;2024-01-07T19:24:23;4.90;99.90
11656;DHT22;5884;43.618;1.438;2024-01-07T19:26:51;4.90;99.90
11656;DHT22;5884;43.618;1.438;2024-01-07T19:29:18;4.90;99.90
11656;DHT22;5884;43.618;1.438;2024-01-07T19:31:45;4.90;99.90
11656;DHT22;5884;43.618;1.438;2024-01-07T19:34:13;4.90;99.90
11656;DHT22;5884;43.618;1.438;2024-01-07T19:36:40;4.90;99.90
11656;DHT22;5884;43.618;1.438;2024-01-07T19:39:08;4.90;99.90
11656;DHT22;5884;43.618;1.438;2024-01-07T19:41:36;4.80;99.90
11656;DHT22;5884;43.618;1.438;2024-01-07T19:44:04;4.90;99.90
11656;DHT22;5884;43.618;1.438;2024-01-07T19:46:32;4.80;99.90
11656;DHT22;5884;43.618;1.438;2024-01-07T19:49:00;4.80;99.90
11656;DHT22;5884;43.618;1.438;2024-01-07T19:51:29;4.90;99.90
11656;DHT22;5884;43.618;1.438;2024-01-07T19:53:56;4.80;99.90
11656;DHT22;5884;43.618;1.438;2024-01-07T19:56:25;4.80;99.90
11656;DHT22;5884;43.618;1.438;2024-01-07T19:58:52;4.80;99.90
11656;DHT22;5884;43.618;1.438;2024-01-07T20:01:21;4.80;99.90
11656;DHT22;5884;43.618;1.438;2024-01-07T20:03:48;4.80;99.90
11656;DHT22;5884;43.618;1.438;2024-01-07T20:06:15;4.80;99.90
11656;DHT22;5884;43.618;1.438;2024-01-07T20:08:43;4.80;99.90
11656;DHT22;5884;43.618;1.438;2024-01-07T20:11:16;4.80;99.90
11656;DHT22;5884;43.618;1.438;2024-01-07T20:13:46;4.80;99.90
11656;DHT22;5884;43.618;1.438;2024-01-07T20:16:14;4.80;99.90
11656;DHT22;5884;43.618;1.438;2024-01-07T20:18:42;4.80;99.90
11656;DHT22;5884;43.618;1.438;2024-01-07T20:21:18;4.80;99.90
11656;DHT22;5884;43.618;1.438;2024-01-07T20:23:46;4.80;99.90
11656;DHT22;5884;43.618;1.438;2024-01-07T20:26:14;4.80;99.90
11656;DHT22;5884;43.618;1.438;2024-01-07T20:28:41;4.80;99.90
11656;DHT22;5884;43.618;1.438;2024-01-07T20:31:10;4.70;99.90
11656;DHT22;5884;43.618;1.438;2024-01-07T20:33:39;4.70;99.90
11656;DHT22;5884;43.618;1.438;2024-01-07T20:36:07;4.70;99.90
11656;DHT22;5884;43.618;1.438;2024-01-07T20:38:35;4.80;99.90
11656;DHT22;5884;43.618;1.438;2024-01-07T20:41:02;4.80;99.90
11656;DHT22;5884;43.618;1.438;2024-01-07T20:43:29;4.80;99.90
11656;DHT22;5884;43.618;1.438;2024-01-07T20:45:57;4.70;99.90
11656;DHT22;5884;43.618;1.438;2024-01-07T20:48:25;4.70;99.90
11656;DHT22;5884;43.618;1.438;2024-01-07T20:50:53;4.70;99.90
11656;DHT22;5884;43.618;1.438;2024-01-07T20:53:20;4.70;99.90
11656;DHT22;5884;43.618;1.438;2024-01-07T20:55:48;4.70;99.90
11656;DHT22;5884;43.618;1.438;2024-01-07T20:58:17;4.70;99.90
11656;DHT22;5884;43.618;1.438;2024-01-07T21:00:44;4.70;99.90
11656;DHT22;5884;43.618;1.438;2024-01-07T21:03:13;4.80;99.90
11656;DHT22;5884;43.618;1.438;2024-01-07T21:05:41;4.70;99.90
11656;DHT22;5884;43.618;1.438;2024-01-07T21:08:10;4.70;99.90
11656;DHT22;5884;43.618;1.438;2024-01-07T21:10:38;4.70;99.90
11656;DHT22;5884;43.618;1.438;2024-01-07T21:13:06;4.70;99.90
11656;DHT22;5884;43.618;1.438;2024-01-07T21:15:36;4.70;99.90
11656;DHT22;5884;43.618;1.438;2024-01-07T21:18:04;4.70;99.90
11656;DHT22;5884;43.618;1.438;2024-01-07T21:20:33;4.70;99.90
11656;DHT22;5884;43.618;1.438;2024-01-07T21:23:03;4.70;99.90
11656;DHT22;5884;43.618;1.438;2024-01-07T21:25:30;4.70;99.90
11656;DHT22;5884;43.618;1.438;2024-01-07T21:27:58;4.70;99.90
11656;DHT22;5884;43.618;1.438;2024-01-07T21:30:25;4.70;99.90
11656;DHT22;5884;43.618;1.438;2024-01-07T21:32:52;4.70;99.90
11656;DHT22;5884;43.618;1.438;2024-01-07T21:35:20;4.70;99.90
11656;DHT22;5884;43.618;1.438;2024-01-07T21:37:47;4.70;99.90
11656;DHT22;5884;43.618;1.438;2024-01-07T21:40:16;4.60;99.90
11656;DHT22;5884;43.618;1.438;2024-01-07T21:42:44;4.70;99.90
11656;DHT22;5884;43.618;1.438;2024-01-07T21:45:11;4.70;99.90
11656;DHT22;5884;43.618;1.438;2024-01-07T21:47:38;4.70;99.90
11656;DHT22;5884;43.618;1.438;2024-01-07T21:50:06;4.70;99.90
11656;DHT22;5884;43.618;1.438;2024-01-07T21:52:34;4.60;99.90